sensor_id;sensor_type;location;lat;lon;timestamp;P1;durP1;ratioP1;P2;durP2;ratioP2
35056;SDS011;21241;51.828;19.574;2023-02-01T00:01:09;7.90;;;7.40;;
35056;SDS011;21241;51.828;19.574;2023-02-01T00:03:36;8.00;;;7.20;;
35056;SDS011;21241;51.828;19.574;2023-02-01T00:06:04;6.80;;;6.10;;
35056;SDS011;21241;51.828;19.574;2023-02-01T00:08:32;6.60;;;6.00;;
35056;SDS011;21241;51.828;19.574;2023-02-01T00:11:01;5.90;;;5.40;;
35056;SDS011;21241;51.828;19.574;2023-02-01T00:13:30;6.30;;;5.40;;
35056;SDS011;21241;51.828;19.574;2023-02-01T00:16:18;6.20;;;5.70;;
35056;SDS011;21241;51.828;19.574;2023-02-01T00:18:49;5.60;;;5.00;;
35056;SDS011;21241;51.828;19.574;2023-02-01T00:21:19;5.30;;;4.80;;
35056;SDS011;21241;51.828;19.574;2023-02-01T00:23:48;7.60;;;5.40;;
35056;SDS011;21241;51.828;19.574;2023-02-01T00:26:16;5.70;;;5.10;;
35056;SDS011;21241;51.828;19.574;2023-02-01T00:28:45;5.30;;;4.50;;
35056;SDS011;21241;51.828;19.574;2023-02-01T00:31:13;5.60;;;4.70;;
35056;SDS011;21241;51.828;19.574;2023-02-01T00:33:42;6.10;;;4.30;;
35056;SDS011;21241;51.828;19.574;2023-02-01T00:36:10;6.10;;;3.60;;
35056;SDS011;21241;51.828;19.574;2023-02-01T00:38:38;5.20;;;3.70;;
35056;SDS011;21241;51.828;19.574;2023-02-01T00:41:11;7.00;;;3.40;;
35056;SDS011;21241;51.828;19.574;2023-02-01T00:43:39;6.40;;;3.30;;
35056;SDS011;21241;51.828;19.574;2023-02-01T00:46:07;6.00;;;3.30;;
35056;SDS011;21241;51.828;19.574;2023-02-01T00:48:35;6.00;;;3.40;;
35056;SDS011;21241;51.828;19.574;2023-02-01T00:51:05;8.50;;;3.60;;
35056;SDS011;21241;51.828;19.574;2023-02-01T00:53:34;7.50;;;3.50;;
35056;SDS011;21241;51.828;19.574;2023-02-01T00:56:02;5.90;;;2.90;;
35056;SDS011;21241;51.828;19.574;2023-02-01T00:58:31;8.40;;;3.10;;
35056;SDS011;21241;51.828;19.574;2023-02-01T01:03:28;7.50;;;2.80;;
35056;SDS011;21241;51.828;19.574;2023-02-01T01:05:56;7.70;;;2.90;;
35056;SDS011;21241;51.828;19.574;2023-02-01T01:08:24;8.10;;;3.00;;
35056;SDS011;21241;51.828;19.574;2023-02-01T01:10:52;9.30;;;3.20;;
35056;SDS011;21241;51.828;19.574;2023-02-01T01:13:20;9.60;;;3.30;;
35056;SDS011;21241;51.828;19.574;2023-02-01T01:15:48;8.10;;;3.70;;
35056;SDS011;21241;51.828;19.574;2023-02-01T01:18:16;10.50;;;4.00;;
35056;SDS011;21241;51.828;19.574;2023-02-01T01:20:43;9.70;;;3.10;;
35056;SDS011;21241;51.828;19.574;2023-02-01T01:23:11;12.00;;;3.80;;
35056;SDS011;21241;51.828;19.574;2023-02-01T01:25:39;9.60;;;3.40;;
35056;SDS011;21241;51.828;19.574;2023-02-01T01:28:07;7.70;;;3.00;;
35056;SDS011;21241;51.828;19.574;2023-02-01T01:30:34;6.20;;;2.90;;
35056;SDS011;21241;51.828;19.574;2023-02-01T01:33:02;9.50;;;3.70;;
35056;SDS011;21241;51.828;19.574;2023-02-01T01:35:31;9.40;;;3.90;;
35056;SDS011;21241;51.828;19.574;2023-02-01T01:37:59;8.30;;;4.30;;
35056;SDS011;21241;51.828;19.574;2023-02-01T01:40:27;9.10;;;3.80;;
35056;SDS011;21241;51.828;19.574;2023-02-01T01:42:56;9.80;;;2.90;;
35056;SDS011;21241;51.828;19.574;2023-02-01T01:47:58;11.00;;;3.80;;
35056;SDS011;21241;51.828;19.574;2023-02-01T01:50:30;6.40;;;3.00;;
35056;SDS011;21241;51.828;19.574;2023-02-01T01:53:02;7.90;;;3.70;;
35056;SDS011;21241;51.828;19.574;2023-02-01T01:55:32;7.10;;;3.20;;
35056;SDS011;21241;51.828;19.574;2023-02-01T01:58:06;5.40;;;3.10;;
35056;SDS011;21241;51.828;19.574;2023-02-01T02:00:37;8.20;;;3.60;;
35056;SDS011;21241;51.828;19.574;2023-02-01T02:03:11;6.60;;;3.60;;
35056;SDS011;21241;51.828;19.574;2023-02-01T02:05:50;9.90;;;3.70;;
35056;SDS011;21241;51.828;19.574;2023-02-01T02:08:20;10.00;;;3.70;;
35056;SDS011;21241;51.828;19.574;2023-02-01T02:10:50;6.50;;;3.40;;
35056;SDS011;21241;51.828;19.574;2023-02-01T02:13:40;7.30;;;3.60;;
35056;SDS011;21241;51.828;19.574;2023-02-01T02:18:45;8.70;;;3.80;;
35056;SDS011;21241;51.828;19.574;2023-02-01T02:27:33;9.60;;;4.40;;
35056;SDS011;21241;51.828;19.574;2023-02-01T02:33:13;8.50;;;4.00;;
35056;SDS011;21241;51.828;19.574;2023-02-01T02:44:31;10.70;;;4.90;;
35056;SDS011;21241;51.828;19.574;2023-02-01T02:47:24;13.90;;;5.60;;
35056;SDS011;21241;51.828;19.574;2023-02-01T02:53:16;10.50;;;4.80;;
35056;SDS011;21241;51.828;19.574;2023-02-01T02:56:06;9.50;;;4.80;;
35056;SDS011;21241;51.828;19.574;2023-02-01T02:58:54;7.20;;;4.00;;
35056;SDS011;21241;51.828;19.574;2023-02-01T03:01:41;8.70;;;4.20;;
35056;SDS011;21241;51.828;19.574;2023-02-01T03:04:28;8.10;;;4.50;;
35056;SDS011;21241;51.828;19.574;2023-02-01T03:06:56;10.70;;;4.50;;
35056;SDS011;21241;51.828;19.574;2023-02-01T03:09:30;11.20;;;4.60;;
35056;SDS011;21241;51.828;19.574;2023-02-01T03:12:01;10.10;;;5.60;;
35056;SDS011;21241;51.828;19.574;2023-02-01T03:14:50;9.20;;;4.60;;
35056;SDS011;21241;51.828;19.574;2023-02-01T03:17:22;11.90;;;5.30;;
35056;SDS011;21241;51.828;19.574;2023-02-01T03:19:56;13.00;;;5.20;;
35056;SDS011;21241;51.828;19.574;2023-02-01T03:22:27;12.00;;;5.10;;
35056;SDS011;21241;51.828;19.574;2023-02-01T03:25:00;11.30;;;4.90;;
35056;SDS011;21241;51.828;19.574;2023-02-01T03:27:35;10.90;;;4.50;;
35056;SDS011;21241;51.828;19.574;2023-02-01T03:30:12;10.70;;;4.50;;
35056;SDS011;21241;51.828;19.574;2023-02-01T03:32:49;10.50;;;4.40;;
35056;SDS011;21241;51.828;19.574;2023-02-01T03:35:39;8.00;;;4.10;;
35056;SDS011;21241;51.828;19.574;2023-02-01T03:38:23;11.20;;;5.10;;
35056;SDS011;21241;51.828;19.574;2023-02-01T03:46:45;9.80;;;4.60;;
35056;SDS011;21241;51.828;19.574;2023-02-01T03:52:32;11.70;;;4.90;;
35056;SDS011;21241;51.828;19.574;2023-02-01T03:55:03;10.30;;;4.70;;
35056;SDS011;21241;51.828;19.574;2023-02-01T03:57:34;11.50;;;5.20;;
35056;SDS011;21241;51.828;19.574;2023-02-01T04:00:04;8.20;;;4.40;;
35056;SDS011;21241;51.828;19.574;2023-02-01T04:02:45;11.70;;;4.50;;
35056;SDS011;21241;51.828;19.574;2023-02-01T04:05:13;13.50;;;5.50;;
35056;SDS011;21241;51.828;19.574;2023-02-01T04:07:46;10.00;;;4.90;;
35056;SDS011;21241;51.828;19.574;2023-02-01T04:10:14;10.90;;;4.70;;
35056;SDS011;21241;51.828;19.574;2023-02-01T04:12:45;9.80;;;4.20;;
35056;SDS011;21241;51.828;19.574;2023-02-01T04:15:13;9.10;;;4.10;;
35056;SDS011;21241;51.828;19.574;2023-02-01T04:17:41;10.90;;;4.30;;
35056;SDS011;21241;51.828;19.574;2023-02-01T04:20:09;11.60;;;4.40;;
35056;SDS011;21241;51.828;19.574;2023-02-01T04:22:37;10.50;;;4.40;;
35056;SDS011;21241;51.828;19.574;2023-02-01T04:25:05;11.70;;;4.70;;
35056;SDS011;21241;51.828;19.574;2023-02-01T04:27:34;8.60;;;4.50;;
35056;SDS011;21241;51.828;19.574;2023-02-01T04:30:05;11.30;;;4.60;;
35056;SDS011;21241;51.828;19.574;2023-02-01T04:32:37;9.70;;;4.50;;
35056;SDS011;21241;51.828;19.574;2023-02-01T04:35:06;9.20;;;3.90;;
35056;SDS011;21241;51.828;19.574;2023-02-01T04:37:34;10.30;;;3.60;;
35056;SDS011;21241;51.828;19.574;2023-02-01T04:40:02;9.60;;;4.00;;
35056;SDS011;21241;51.828;19.574;2023-02-01T04:42:31;9.40;;;3.90;;
35056;SDS011;21241;51.828;19.574;2023-02-01T04:44:58;11.20;;;3.70;;
35056;SDS011;21241;51.828;19.574;2023-02-01T04:47:26;8.80;;;3.60;;
35056;SDS011;21241;51.828;19.574;2023-02-01T04:49:54;8.30;;;4.60;;
35056;SDS011;21241;51.828;19.574;2023-02-01T04:52:22;9.90;;;3.60;;
35056;SDS011;21241;51.828;19.574;2023-02-01T04:54:49;10.50;;;4.40;;
35056;SDS011;21241;51.828;19.574;2023-02-01T04:57:17;11.10;;;4.00;;
35056;SDS011;21241;51.828;19.574;2023-02-01T04:59:45;9.20;;;3.90;;
35056;SDS011;21241;51.828;19.574;2023-02-01T05:02:12;9.20;;;3.70;;
35056;SDS011;21241;51.828;19.574;2023-02-01T05:04:40;9.90;;;4.20;;
35056;SDS011;21241;51.828;19.574;2023-02-01T05:07:08;11.20;;;4.00;;
35056;SDS011;21241;51.828;19.574;2023-02-01T05:09:36;12.00;;;4.40;;
35056;SDS011;21241;51.828;19.574;2023-02-01T05:12:03;13.50;;;4.50;;
35056;SDS011;21241;51.828;19.574;2023-02-01T05:14:51;11.90;;;3.90;;
35056;SDS011;21241;51.828;19.574;2023-02-01T05:17:18;12.60;;;4.10;;
35056;SDS011;21241;51.828;19.574;2023-02-01T05:19:46;12.80;;;4.90;;
35056;SDS011;21241;51.828;19.574;2023-02-01T05:22:14;11.30;;;4.10;;
35056;SDS011;21241;51.828;19.574;2023-02-01T05:24:41;13.70;;;4.40;;
35056;SDS011;21241;51.828;19.574;2023-02-01T05:27:09;9.70;;;3.90;;
35056;SDS011;21241;51.828;19.574;2023-02-01T05:29:37;11.90;;;4.20;;
35056;SDS011;21241;51.828;19.574;2023-02-01T05:32:05;10.30;;;4.30;;
35056;SDS011;21241;51.828;19.574;2023-02-01T05:34:48;10.10;;;4.50;;
35056;SDS011;21241;51.828;19.574;2023-02-01T05:37:16;11.80;;;4.10;;
35056;SDS011;21241;51.828;19.574;2023-02-01T05:39:44;10.20;;;4.40;;
35056;SDS011;21241;51.828;19.574;2023-02-01T05:42:11;12.00;;;5.00;;
35056;SDS011;21241;51.828;19.574;2023-02-01T05:44:39;11.90;;;4.30;;
35056;SDS011;21241;51.828;19.574;2023-02-01T05:47:07;11.80;;;4.80;;
35056;SDS011;21241;51.828;19.574;2023-02-01T05:49:34;13.30;;;4.60;;
35056;SDS011;21241;51.828;19.574;2023-02-01T05:52:02;11.60;;;5.10;;
35056;SDS011;21241;51.828;19.574;2023-02-01T05:54:30;8.70;;;3.90;;
35056;SDS011;21241;51.828;19.574;2023-02-01T05:56:58;12.40;;;5.30;;
35056;SDS011;21241;51.828;19.574;2023-02-01T05:59:25;10.70;;;4.20;;
35056;SDS011;21241;51.828;19.574;2023-02-01T06:01:53;10.40;;;4.40;;
35056;SDS011;21241;51.828;19.574;2023-02-01T06:04:21;12.70;;;4.90;;
35056;SDS011;21241;51.828;19.574;2023-02-01T06:06:48;11.60;;;4.40;;
35056;SDS011;21241;51.828;19.574;2023-02-01T06:09:17;11.80;;;5.30;;
35056;SDS011;21241;51.828;19.574;2023-02-01T06:11:45;12.40;;;4.70;;
35056;SDS011;21241;51.828;19.574;2023-02-01T06:14:13;9.10;;;4.60;;
35056;SDS011;21241;51.828;19.574;2023-02-01T06:16:41;11.60;;;4.90;;
35056;SDS011;21241;51.828;19.574;2023-02-01T06:19:08;13.40;;;4.70;;
35056;SDS011;21241;51.828;19.574;2023-02-01T06:21:36;10.60;;;4.40;;
35056;SDS011;21241;51.828;19.574;2023-02-01T06:24:04;11.30;;;4.10;;
35056;SDS011;21241;51.828;19.574;2023-02-01T06:26:32;10.10;;;4.70;;
35056;SDS011;21241;51.828;19.574;2023-02-01T06:29:00;12.10;;;4.60;;
35056;SDS011;21241;51.828;19.574;2023-02-01T06:31:28;11.70;;;4.90;;
35056;SDS011;21241;51.828;19.574;2023-02-01T06:33:57;10.60;;;3.80;;
35056;SDS011;21241;51.828;19.574;2023-02-01T06:36:24;9.50;;;4.00;;
35056;SDS011;21241;51.828;19.574;2023-02-01T06:38:52;11.80;;;4.80;;
35056;SDS011;21241;51.828;19.574;2023-02-01T06:41:20;10.80;;;4.70;;
35056;SDS011;21241;51.828;19.574;2023-02-01T06:43:48;12.70;;;4.20;;
35056;SDS011;21241;51.828;19.574;2023-02-01T06:46:16;10.50;;;4.60;;
35056;SDS011;21241;51.828;19.574;2023-02-01T06:48:44;11.90;;;4.60;;
35056;SDS011;21241;51.828;19.574;2023-02-01T06:51:24;13.20;;;4.50;;
35056;SDS011;21241;51.828;19.574;2023-02-01T06:53:53;12.40;;;4.70;;
35056;SDS011;21241;51.828;19.574;2023-02-01T06:56:21;13.30;;;4.50;;
35056;SDS011;21241;51.828;19.574;2023-02-01T06:58:49;11.60;;;4.20;;
35056;SDS011;21241;51.828;19.574;2023-02-01T07:01:17;11.30;;;4.40;;
35056;SDS011;21241;51.828;19.574;2023-02-01T07:03:48;10.20;;;4.20;;
35056;SDS011;21241;51.828;19.574;2023-02-01T07:06:18;13.20;;;5.00;;
35056;SDS011;21241;51.828;19.574;2023-02-01T07:08:46;11.30;;;4.90;;
35056;SDS011;21241;51.828;19.574;2023-02-01T07:11:14;12.80;;;5.40;;
35056;SDS011;21241;51.828;19.574;2023-02-01T07:13:43;15.30;;;5.20;;
35056;SDS011;21241;51.828;19.574;2023-02-01T07:16:12;11.00;;;5.70;;
35056;SDS011;21241;51.828;19.574;2023-02-01T07:18:42;11.00;;;4.70;;
35056;SDS011;21241;51.828;19.574;2023-02-01T07:21:10;12.20;;;5.60;;
35056;SDS011;21241;51.828;19.574;2023-02-01T07:23:39;10.10;;;4.60;;
35056;SDS011;21241;51.828;19.574;2023-02-01T07:26:07;11.60;;;5.10;;
35056;SDS011;21241;51.828;19.574;2023-02-01T07:28:38;12.00;;;4.50;;
35056;SDS011;21241;51.828;19.574;2023-02-01T07:31:10;12.00;;;4.70;;
35056;SDS011;21241;51.828;19.574;2023-02-01T07:33:41;13.10;;;6.10;;
35056;SDS011;21241;51.828;19.574;2023-02-01T07:36:16;11.20;;;5.40;;
35056;SDS011;21241;51.828;19.574;2023-02-01T07:38:44;11.20;;;4.70;;
35056;SDS011;21241;51.828;19.574;2023-02-01T07:41:14;9.40;;;4.30;;
35056;SDS011;21241;51.828;19.574;2023-02-01T07:43:42;13.10;;;6.00;;
35056;SDS011;21241;51.828;19.574;2023-02-01T07:46:10;12.70;;;5.50;;
35056;SDS011;21241;51.828;19.574;2023-02-01T07:48:39;11.90;;;6.10;;
35056;SDS011;21241;51.828;19.574;2023-02-01T07:51:11;11.80;;;4.80;;
35056;SDS011;21241;51.828;19.574;2023-02-01T07:53:41;11.70;;;5.40;;
35056;SDS011;21241;51.828;19.574;2023-02-01T07:56:13;11.90;;;5.50;;
35056;SDS011;21241;51.828;19.574;2023-02-01T07:58:51;11.30;;;5.30;;
35056;SDS011;21241;51.828;19.574;2023-02-01T08:01:22;11.70;;;4.70;;
35056;SDS011;21241;51.828;19.574;2023-02-01T08:03:55;14.40;;;5.60;;
35056;SDS011;21241;51.828;19.574;2023-02-01T08:06:26;11.30;;;5.50;;
35056;SDS011;21241;51.828;19.574;2023-02-01T08:08:58;12.30;;;5.80;;
35056;SDS011;21241;51.828;19.574;2023-02-01T08:11:26;14.20;;;7.00;;
35056;SDS011;21241;51.828;19.574;2023-02-01T08:13:54;11.80;;;6.50;;
35056;SDS011;21241;51.828;19.574;2023-02-01T08:16:23;13.00;;;5.90;;
35056;SDS011;21241;51.828;19.574;2023-02-01T08:18:51;10.60;;;5.10;;
35056;SDS011;21241;51.828;19.574;2023-02-01T08:21:24;15.30;;;6.00;;
35056;SDS011;21241;51.828;19.574;2023-02-01T08:23:53;13.60;;;5.70;;
35056;SDS011;21241;51.828;19.574;2023-02-01T08:26:22;9.60;;;5.30;;
35056;SDS011;21241;51.828;19.574;2023-02-01T08:28:53;14.70;;;7.00;;
35056;SDS011;21241;51.828;19.574;2023-02-01T08:31:26;12.80;;;5.70;;
35056;SDS011;21241;51.828;19.574;2023-02-01T08:33:56;13.70;;;8.50;;
35056;SDS011;21241;51.828;19.574;2023-02-01T08:36:26;13.10;;;7.40;;
35056;SDS011;21241;51.828;19.574;2023-02-01T08:38:56;12.70;;;5.50;;
35056;SDS011;21241;51.828;19.574;2023-02-01T08:41:24;15.60;;;6.60;;
35056;SDS011;21241;51.828;19.574;2023-02-01T08:43:54;13.30;;;6.40;;
35056;SDS011;21241;51.828;19.574;2023-02-01T08:46:23;14.30;;;6.00;;
35056;SDS011;21241;51.828;19.574;2023-02-01T08:48:51;13.90;;;6.10;;
35056;SDS011;21241;51.828;19.574;2023-02-01T08:51:20;12.30;;;6.60;;
35056;SDS011;21241;51.828;19.574;2023-02-01T08:53:49;12.90;;;6.60;;
35056;SDS011;21241;51.828;19.574;2023-02-01T08:56:18;12.60;;;6.00;;
35056;SDS011;21241;51.828;19.574;2023-02-01T08:58:46;11.20;;;5.40;;
35056;SDS011;21241;51.828;19.574;2023-02-01T09:01:15;11.40;;;5.60;;
35056;SDS011;21241;51.828;19.574;2023-02-01T09:03:44;12.30;;;5.70;;
35056;SDS011;21241;51.828;19.574;2023-02-01T09:06:14;14.20;;;7.00;;
35056;SDS011;21241;51.828;19.574;2023-02-01T09:08:42;11.20;;;5.90;;
35056;SDS011;21241;51.828;19.574;2023-02-01T09:11:11;11.20;;;5.90;;
35056;SDS011;21241;51.828;19.574;2023-02-01T09:13:41;14.30;;;6.70;;
35056;SDS011;21241;51.828;19.574;2023-02-01T09:16:10;13.30;;;6.30;;
35056;SDS011;21241;51.828;19.574;2023-02-01T09:18:38;12.00;;;6.10;;
35056;SDS011;21241;51.828;19.574;2023-02-01T09:21:23;13.30;;;6.20;;
35056;SDS011;21241;51.828;19.574;2023-02-01T09:23:51;14.00;;;7.10;;
35056;SDS011;21241;51.828;19.574;2023-02-01T09:26:19;12.20;;;6.50;;
35056;SDS011;21241;51.828;19.574;2023-02-01T09:28:57;13.30;;;6.70;;
35056;SDS011;21241;51.828;19.574;2023-02-01T09:31:25;11.30;;;6.10;;
35056;SDS011;21241;51.828;19.574;2023-02-01T09:33:54;15.00;;;7.10;;
35056;SDS011;21241;51.828;19.574;2023-02-01T09:36:22;14.40;;;6.40;;
35056;SDS011;21241;51.828;19.574;2023-02-01T09:38:50;14.00;;;7.10;;
35056;SDS011;21241;51.828;19.574;2023-02-01T09:41:35;14.40;;;6.50;;
35056;SDS011;21241;51.828;19.574;2023-02-01T09:47:16;14.40;;;6.80;;
35056;SDS011;21241;51.828;19.574;2023-02-01T09:49:50;14.70;;;8.80;;
35056;SDS011;21241;51.828;19.574;2023-02-01T09:52:40;14.50;;;8.70;;
35056;SDS011;21241;51.828;19.574;2023-02-01T09:55:15;15.90;;;10.50;;
35056;SDS011;21241;51.828;19.574;2023-02-01T09:57:50;15.30;;;11.60;;
35056;SDS011;21241;51.828;19.574;2023-02-01T10:00:25;23.20;;;16.30;;
35056;SDS011;21241;51.828;19.574;2023-02-01T10:02:55;17.20;;;12.20;;
35056;SDS011;21241;51.828;19.574;2023-02-01T10:05:31;23.60;;;18.90;;
35056;SDS011;21241;51.828;19.574;2023-02-01T10:08:23;19.10;;;16.30;;
35056;SDS011;21241;51.828;19.574;2023-02-01T10:11:02;19.10;;;14.80;;
35056;SDS011;21241;51.828;19.574;2023-02-01T10:13:45;14.40;;;10.20;;
35056;SDS011;21241;51.828;19.574;2023-02-01T10:16:43;15.20;;;9.00;;
35056;SDS011;21241;51.828;19.574;2023-02-01T10:19:21;15.30;;;10.00;;
35056;SDS011;21241;51.828;19.574;2023-02-01T10:22:01;14.90;;;10.70;;
35056;SDS011;21241;51.828;19.574;2023-02-01T10:27:14;15.60;;;10.40;;
35056;SDS011;21241;51.828;19.574;2023-02-01T10:29:47;14.10;;;9.80;;
35056;SDS011;21241;51.828;19.574;2023-02-01T10:32:29;14.40;;;9.80;;
35056;SDS011;21241;51.828;19.574;2023-02-01T10:34:59;16.70;;;9.30;;
35056;SDS011;21241;51.828;19.574;2023-02-01T10:37:30;15.40;;;9.20;;
35056;SDS011;21241;51.828;19.574;2023-02-01T10:40:00;14.60;;;9.50;;
35056;SDS011;21241;51.828;19.574;2023-02-01T10:42:45;12.90;;;9.80;;
35056;SDS011;21241;51.828;19.574;2023-02-01T10:45:15;16.90;;;11.00;;
35056;SDS011;21241;51.828;19.574;2023-02-01T10:47:46;14.80;;;10.70;;
35056;SDS011;21241;51.828;19.574;2023-02-01T10:50:35;15.40;;;9.90;;
35056;SDS011;21241;51.828;19.574;2023-02-01T10:56:01;11.50;;;8.70;;
35056;SDS011;21241;51.828;19.574;2023-02-01T10:58:42;12.70;;;7.80;;
35056;SDS011;21241;51.828;19.574;2023-02-01T11:01:19;13.50;;;8.50;;
35056;SDS011;21241;51.828;19.574;2023-02-01T11:03:55;14.40;;;8.40;;
35056;SDS011;21241;51.828;19.574;2023-02-01T11:06:39;15.00;;;8.90;;
35056;SDS011;21241;51.828;19.574;2023-02-01T11:11:52;11.80;;;7.30;;
35056;SDS011;21241;51.828;19.574;2023-02-01T11:16:55;14.00;;;8.40;;
35056;SDS011;21241;51.828;19.574;2023-02-01T11:19:27;15.20;;;9.00;;
35056;SDS011;21241;51.828;19.574;2023-02-01T11:21:57;12.30;;;7.90;;
35056;SDS011;21241;51.828;19.574;2023-02-01T11:24:27;12.30;;;8.30;;
35056;SDS011;21241;51.828;19.574;2023-02-01T11:26:57;13.40;;;9.20;;
35056;SDS011;21241;51.828;19.574;2023-02-01T11:29:27;12.70;;;7.80;;
35056;SDS011;21241;51.828;19.574;2023-02-01T11:31:58;11.50;;;7.10;;
35056;SDS011;21241;51.828;19.574;2023-02-01T11:34:33;13.90;;;8.10;;
35056;SDS011;21241;51.828;19.574;2023-02-01T11:37:14;12.10;;;7.80;;
35056;SDS011;21241;51.828;19.574;2023-02-01T11:39:53;13.10;;;7.70;;
35056;SDS011;21241;51.828;19.574;2023-02-01T11:42:26;14.10;;;8.90;;
35056;SDS011;21241;51.828;19.574;2023-02-01T11:45:15;12.30;;;8.40;;
35056;SDS011;21241;51.828;19.574;2023-02-01T11:47:46;16.00;;;7.50;;
35056;SDS011;21241;51.828;19.574;2023-02-01T11:50:15;14.90;;;8.30;;
35056;SDS011;21241;51.828;19.574;2023-02-01T11:55:52;12.60;;;8.60;;
35056;SDS011;21241;51.828;19.574;2023-02-01T11:58:32;14.40;;;8.90;;
35056;SDS011;21241;51.828;19.574;2023-02-01T12:09:45;7.10;;;5.30;;
35056;SDS011;21241;51.828;19.574;2023-02-01T12:12:25;7.40;;;5.30;;
35056;SDS011;21241;51.828;19.574;2023-02-01T12:20:52;6.50;;;4.80;;
35056;SDS011;21241;51.828;19.574;2023-02-01T12:24:19;6.70;;;5.20;;
35056;SDS011;21241;51.828;19.574;2023-02-01T12:29:16;7.90;;;5.20;;
35056;SDS011;21241;51.828;19.574;2023-02-01T12:32:07;6.70;;;5.10;;
35056;SDS011;21241;51.828;19.574;2023-02-01T12:35:20;6.90;;;4.90;;
35056;SDS011;21241;51.828;19.574;2023-02-01T12:40:58;6.60;;;5.80;;
35056;SDS011;21241;51.828;19.574;2023-02-01T12:46:29;7.40;;;5.80;;
35056;SDS011;21241;51.828;19.574;2023-02-01T12:49:02;8.90;;;6.40;;
35056;SDS011;21241;51.828;19.574;2023-02-01T12:51:36;8.00;;;5.80;;
35056;SDS011;21241;51.828;19.574;2023-02-01T12:54:28;8.00;;;5.90;;
35056;SDS011;21241;51.828;19.574;2023-02-01T12:57:04;8.20;;;6.60;;
35056;SDS011;21241;51.828;19.574;2023-02-01T12:59:47;8.40;;;7.00;;
35056;SDS011;21241;51.828;19.574;2023-02-01T13:02:25;9.10;;;8.00;;
35056;SDS011;21241;51.828;19.574;2023-02-01T13:05:02;10.30;;;9.20;;
35056;SDS011;21241;51.828;19.574;2023-02-01T13:07:37;11.10;;;8.90;;
35056;SDS011;21241;51.828;19.574;2023-02-01T13:10:14;12.00;;;9.40;;
35056;SDS011;21241;51.828;19.574;2023-02-01T13:12:54;11.80;;;9.60;;
35056;SDS011;21241;51.828;19.574;2023-02-01T13:15:28;10.10;;;9.00;;
35056;SDS011;21241;51.828;19.574;2023-02-01T13:18:00;13.00;;;9.30;;
35056;SDS011;21241;51.828;19.574;2023-02-01T13:20:31;11.60;;;9.20;;
35056;SDS011;21241;51.828;19.574;2023-02-01T13:23:07;11.70;;;9.70;;
35056;SDS011;21241;51.828;19.574;2023-02-01T13:25:48;10.60;;;9.20;;
35056;SDS011;21241;51.828;19.574;2023-02-01T13:39:41;10.50;;;8.40;;
35056;SDS011;21241;51.828;19.574;2023-02-01T13:42:18;11.70;;;10.00;;
35056;SDS011;21241;51.828;19.574;2023-02-01T13:44:50;10.70;;;9.30;;
35056;SDS011;21241;51.828;19.574;2023-02-01T13:47:32;10.90;;;8.00;;
35056;SDS011;21241;51.828;19.574;2023-02-01T13:55:44;25.80;;;23.80;;
35056;SDS011;21241;51.828;19.574;2023-02-01T14:00:48;34.30;;;31.40;;
35056;SDS011;21241;51.828;19.574;2023-02-01T14:03:22;26.30;;;24.10;;
35056;SDS011;21241;51.828;19.574;2023-02-01T14:08:43;11.60;;;10.50;;
35056;SDS011;21241;51.828;19.574;2023-02-01T14:11:32;13.10;;;11.80;;
35056;SDS011;21241;51.828;19.574;2023-02-01T14:14:07;13.80;;;12.40;;
35056;SDS011;21241;51.828;19.574;2023-02-01T14:19:26;16.40;;;15.00;;
35056;SDS011;21241;51.828;19.574;2023-02-01T14:21:56;18.90;;;17.20;;
35056;SDS011;21241;51.828;19.574;2023-02-01T14:24:34;25.10;;;21.80;;
35056;SDS011;21241;51.828;19.574;2023-02-01T14:27:14;24.10;;;21.70;;
35056;SDS011;21241;51.828;19.574;2023-02-01T14:29:50;20.40;;;18.00;;
35056;SDS011;21241;51.828;19.574;2023-02-01T14:32:26;19.40;;;17.40;;
35056;SDS011;21241;51.828;19.574;2023-02-01T14:34:59;29.50;;;26.50;;
35056;SDS011;21241;51.828;19.574;2023-02-01T14:37:32;18.90;;;17.10;;
35056;SDS011;21241;51.828;19.574;2023-02-01T14:40:04;13.40;;;12.10;;
35056;SDS011;21241;51.828;19.574;2023-02-01T14:42:47;14.80;;;12.40;;
35056;SDS011;21241;51.828;19.574;2023-02-01T14:47:51;16.30;;;14.60;;
35056;SDS011;21241;51.828;19.574;2023-02-01T14:50:48;12.90;;;11.70;;
35056;SDS011;21241;51.828;19.574;2023-02-01T14:53:18;11.40;;;10.20;;
35056;SDS011;21241;51.828;19.574;2023-02-01T14:55:53;15.20;;;13.90;;
35056;SDS011;21241;51.828;19.574;2023-02-01T15:01:27;12.90;;;11.80;;
35056;SDS011;21241;51.828;19.574;2023-02-01T15:04:08;13.00;;;11.70;;
35056;SDS011;21241;51.828;19.574;2023-02-01T15:06:41;14.00;;;12.80;;
35056;SDS011;21241;51.828;19.574;2023-02-01T15:09:23;15.50;;;14.10;;
35056;SDS011;21241;51.828;19.574;2023-02-01T15:14:43;12.20;;;11.00;;
35056;SDS011;21241;51.828;19.574;2023-02-01T15:17:20;12.50;;;11.40;;
35056;SDS011;21241;51.828;19.574;2023-02-01T15:19:55;10.80;;;10.00;;
35056;SDS011;21241;51.828;19.574;2023-02-01T15:22:24;11.00;;;10.00;;
35056;SDS011;21241;51.828;19.574;2023-02-01T15:24:53;15.00;;;13.90;;
35056;SDS011;21241;51.828;19.574;2023-02-01T15:27:23;12.50;;;11.40;;
35056;SDS011;21241;51.828;19.574;2023-02-01T15:29:52;10.80;;;10.00;;
35056;SDS011;21241;51.828;19.574;2023-02-01T15:32:31;11.40;;;10.50;;
35056;SDS011;21241;51.828;19.574;2023-02-01T15:35:02;10.00;;;9.00;;
35056;SDS011;21241;51.828;19.574;2023-02-01T15:37:30;15.20;;;13.90;;
35056;SDS011;21241;51.828;19.574;2023-02-01T15:42:54;13.40;;;12.40;;
35056;SDS011;21241;51.828;19.574;2023-02-01T15:45:28;10.20;;;9.20;;
35056;SDS011;21241;51.828;19.574;2023-02-01T15:47:57;12.60;;;11.60;;
35056;SDS011;21241;51.828;19.574;2023-02-01T15:50:26;12.30;;;11.20;;
35056;SDS011;21241;51.828;19.574;2023-02-01T15:52:55;10.60;;;9.70;;
35056;SDS011;21241;51.828;19.574;2023-02-01T15:58:00;15.10;;;13.80;;
35056;SDS011;21241;51.828;19.574;2023-02-01T16:00:40;15.80;;;14.40;;
35056;SDS011;21241;51.828;19.574;2023-02-01T16:06:04;15.10;;;13.80;;
35056;SDS011;21241;51.828;19.574;2023-02-01T16:08:33;9.40;;;8.70;;
35056;SDS011;21241;51.828;19.574;2023-02-01T16:13:34;8.40;;;7.50;;
35056;SDS011;21241;51.828;19.574;2023-02-01T16:16:02;13.40;;;12.20;;
35056;SDS011;21241;51.828;19.574;2023-02-01T16:18:35;9.80;;;8.90;;
35056;SDS011;21241;51.828;19.574;2023-02-01T16:21:03;9.40;;;8.40;;
35056;SDS011;21241;51.828;19.574;2023-02-01T16:23:31;11.40;;;10.40;;
35056;SDS011;21241;51.828;19.574;2023-02-01T16:25:59;8.40;;;7.60;;
35056;SDS011;21241;51.828;19.574;2023-02-01T16:28:26;8.40;;;7.60;;
35056;SDS011;21241;51.828;19.574;2023-02-01T16:30:54;9.70;;;8.80;;
35056;SDS011;21241;51.828;19.574;2023-02-01T16:33:22;8.80;;;8.00;;
35056;SDS011;21241;51.828;19.574;2023-02-01T16:35:50;8.80;;;8.00;;
35056;SDS011;21241;51.828;19.574;2023-02-01T16:38:19;9.50;;;8.20;;
35056;SDS011;21241;51.828;19.574;2023-02-01T16:40:49;9.60;;;7.60;;
35056;SDS011;21241;51.828;19.574;2023-02-01T16:43:18;9.40;;;8.40;;
35056;SDS011;21241;51.828;19.574;2023-02-01T16:45:48;9.10;;;8.30;;
35056;SDS011;21241;51.828;19.574;2023-02-01T16:48:24;8.70;;;7.80;;
35056;SDS011;21241;51.828;19.574;2023-02-01T16:50:55;10.20;;;8.60;;
35056;SDS011;21241;51.828;19.574;2023-02-01T16:53:24;8.00;;;6.70;;
35056;SDS011;21241;51.828;19.574;2023-02-01T16:55:55;8.20;;;6.70;;